< < Back
Terminal Aerodrome Forecast


Current Version              Previous Versions:   1  2  3  4  5  6  7  8  9  

Terminal Aerodrome Forecast

432
FTUS42 KCAE 010500
TAFCAE
TAF
KCAE 010524Z 0106/0206 28010KT P6SM SCT025 OVC040
      TEMPO 0106/0109 -SHRA BKN025
     FM010900 28012KT P6SM -SHRA SCT008 BKN020
     FM011500 31015G30KT P6SM -SHRA OVC020
     FM012100 30015G25KT P6SM BKN040
     FM020000 30012KT P6SM BKN100=



Latest METAR

151
SAUS80 KWBC 011200 RRM
MTRCAE
METAR KCAE 011156Z 27008KT 2SM -SN BR OVC013 01/00 A2972 RMK AO2
RAE19SNB19 SLP064 P0006 60040 70041 T00110000 10122 20011
51005 $


USA.gov is the U.S. government's official web portal to all federal, state and local government web resources and services.